Time;durP1;ratioP1;P1;durP2;ratioP2;P2;SDS_P1;SDS_P2;PMS_P1;PMS_P2;Temp;Humidity;BMP_temperature;BMP_pressure;BME280_temperature;BME280_humidity;BME280_pressure;Samples;Min_cycle;Max_cycle;Signal;HPM_P1;HPM_P2
2021/03/04 00:02:25;;;;;;;66.38;18.63;;;;;;;;;;5008756;28;20053;-60
2021/03/04 00:04:51;;;;;;;72.43;21.60;;;;;;;;;;5033878;28;20057;-59
2021/03/04 00:07:17;;;;;;;85.43;24.35;;;;;;;;;;5008183;28;20056;-61
2021/03/04 00:09:44;;;;;;;70.60;19.27;;;;;;;;;;5020904;28;20053;-61
2021/03/04 00:12:10;;;;;;;70.53;20.27;;;;;;;;;;5018454;28;20513;-61
2021/03/04 00:14:36;;;;;;;68.72;21.60;;;;;;;;;;5022206;28;20057;-62
2021/03/04 00:17:02;;;;;;;80.80;24.30;;;;;;;;;;5002770;28;20081;-60
2021/03/04 00:19:29;;;;;;;80.13;23.02;;;;;;;;;;5005721;28;20033;-61
2021/03/04 00:21:55;;;;;;;68.38;20.10;;;;;;;;;;5003882;28;20042;-61
2021/03/04 00:24:21;;;;;;;79.43;21.77;;;;;;;;;;5025637;28;20076;-61
2021/03/04 00:26:47;;;;;;;87.18;21.33;;;;;;;;;;5038842;28;20057;-61
2021/03/04 00:29:14;;;;;;;76.47;22.33;;;;;;;;;;5042128;28;20033;-59
2021/03/04 00:31:40;;;;;;;62.38;19.88;;;;;;;;;;5041658;28;20115;-59
2021/03/04 00:34:06;;;;;;;61.08;17.48;;;;;;;;;;5020741;28;20041;-61
2021/03/04 00:36:33;;;;;;;64.88;18.15;;;;;;;;;;5044685;28;20029;-62
2021/03/04 00:38:59;;;;;;;57.42;17.52;;;;;;;;;;5006588;28;20165;-61
2021/03/04 00:41:26;;;;;;;54.35;15.77;;;;;;;;;;5008029;28;20100;-62
2021/03/04 00:43:53;;;;;;;55.80;16.60;;;;;;;;;;5011801;28;20131;-60
2021/03/04 00:46:19;;;;;;;62.00;17.30;;;;;;;;;;5007595;28;20053;-61
2021/03/04 00:48:45;;;;;;;58.40;16.67;;;;;;;;;;5004535;28;20050;-62
2021/03/04 00:51:11;;;;;;;41.53;13.13;;;;;;;;;;5024185;28;20060;-61
2021/03/04 00:53:37;;;;;;;45.38;14.23;;;;;;;;;;5003466;28;20046;-61
2021/03/04 00:56:04;;;;;;;46.45;15.60;;;;;;;;;;5006811;28;20038;-62
2021/03/04 00:58:29;;;;;;;47.40;15.10;;;;;;;;;;4988344;28;20050;-61
2021/03/04 01:00:56;;;;;;;45.00;14.07;;;;;;;;;;5024544;28;20038;-60
2021/03/04 01:03:21;;;;;;;48.88;14.90;;;;;;;;;;5031542;28;20041;-60
2021/03/04 01:05:47;;;;;;;45.20;14.73;;;;;;;;;;5042915;28;20043;-60
2021/03/04 01:08:13;;;;;;;50.03;15.25;;;;;;;;;;5026198;28;20051;-61
2021/03/04 01:10:43;;;;;;;51.13;15.63;;;;;;;;;;5003743;28;20051;-59
2021/03/04 01:13:09;;;;;;;49.55;15.77;;;;;;;;;;5025303;28;20045;-60
2021/03/04 01:15:35;;;;;;;47.00;15.10;;;;;;;;;;5005332;28;20086;-60
2021/03/04 01:18:02;;;;;;;51.78;17.45;;;;;;;;;;5007615;28;20033;-61
2021/03/04 01:20:28;;;;;;;46.30;15.32;;;;;;;;;;5004008;28;20083;-61
2021/03/04 01:22:54;;;;;;;48.83;15.80;;;;;;;;;;5005430;28;20049;-61
2021/03/04 01:25:20;;;;;;;50.70;16.38;;;;;;;;;;5013663;28;20046;-61
2021/03/04 01:27:49;;;;;;;49.20;15.35;;;;;;;;;;5027025;28;20095;-60
2021/03/04 01:30:16;;;;;;;41.83;13.77;;;;;;;;;;5020601;28;20059;-61
2021/03/04 01:32:42;;;;;;;50.28;15.43;;;;;;;;;;5026278;28;20461;-61
2021/03/04 01:35:10;;;;;;;52.65;16.27;;;;;;;;;;5039018;28;20045;-61
2021/03/04 01:37:36;;;;;;;45.53;13.57;;;;;;;;;;5025640;28;20044;-60
2021/03/04 01:40:04;;;;;;;46.88;14.10;;;;;;;;;;5020731;28;20048;-62
2021/03/04 01:42:30;;;;;;;46.50;14.87;;;;;;;;;;5030093;28;20069;-62
2021/03/04 01:44:57;;;;;;;44.72;14.02;;;;;;;;;;5002734;28;20283;-60
2021/03/04 01:47:23;;;;;;;40.47;13.85;;;;;;;;;;5025584;28;20048;-61
2021/03/04 01:49:49;;;;;;;47.30;15.40;;;;;;;;;;4993349;28;20050;-60
2021/03/04 01:52:15;;;;;;;49.05;15.13;;;;;;;;;;5001745;28;20026;-61
2021/03/04 01:54:41;;;;;;;42.30;14.55;;;;;;;;;;5021450;28;20045;-61
2021/03/04 01:57:07;;;;;;;46.30;15.90;;;;;;;;;;5003303;28;20073;-60
2021/03/04 01:59:34;;;;;;;36.45;12.20;;;;;;;;;;5023574;28;20034;-61
2021/03/04 02:02:01;;;;;;;41.35;13.57;;;;;;;;;;5014710;28;20037;-62
2021/03/04 02:04:27;;;;;;;44.65;15.00;;;;;;;;;;5022676;28;20057;-61
2021/03/04 02:06:58;;;;;;;54.22;18.17;;;;;;;;;;5008077;28;20136;-62
2021/03/04 02:09:25;;;;;;;52.75;17.95;;;;;;;;;;5002755;28;20027;-61
2021/03/04 02:11:53;;;;;;;68.00;18.10;;;;;;;;;;5008581;28;20033;-61
2021/03/04 02:14:22;;;;;;;56.38;16.00;;;;;;;;;;5023357;28;20049;-61
2021/03/04 02:16:50;;;;;;;42.80;13.50;;;;;;;;;;5012514;28;20057;-62
2021/03/04 02:19:31;;;;;;;55.95;15.38;;;;;;;;;;5000652;28;20136;-61
2021/03/04 02:22:02;;;;;;;50.15;15.45;;;;;;;;;;5003559;28;20041;-61
2021/03/04 02:24:32;;;;;;;47.75;14.30;;;;;;;;;;5021788;28;20038;-61
2021/03/04 02:27:01;;;;;;;52.47;15.50;;;;;;;;;;5015139;28;20038;-60
2021/03/04 02:29:29;;;;;;;55.30;15.68;;;;;;;;;;5001691;28;20042;-62
2021/03/04 02:31:57;;;;;;;54.95;15.05;;;;;;;;;;4998069;28;20062;-61
2021/03/04 02:34:24;;;;;;;54.05;15.60;;;;;;;;;;5001099;28;20050;-59
2021/03/04 02:36:52;;;;;;;56.95;16.77;;;;;;;;;;5001108;28;20034;-59
2021/03/04 02:39:19;;;;;;;57.22;15.43;;;;;;;;;;5024287;28;20413;-60
2021/03/04 02:41:45;;;;;;;51.15;14.05;;;;;;;;;;5017444;28;20038;-60
2021/03/04 02:44:13;;;;;;;51.92;14.20;;;;;;;;;;4986840;28;20055;-61
2021/03/04 02:46:39;;;;;;;46.90;14.88;;;;;;;;;;4984114;28;20043;-61
2021/03/04 02:49:07;;;;;;;48.17;15.15;;;;;;;;;;5010201;28;20115;-61
2021/03/04 02:51:34;;;;;;;47.45;15.00;;;;;;;;;;5021559;28;20048;-59
2021/03/04 02:54:01;;;;;;;43.67;14.95;;;;;;;;;;5016188;28;20037;-61
2021/03/04 02:56:28;;;;;;;45.97;14.30;;;;;;;;;;5022104;28;20062;-60
2021/03/04 02:58:55;;;;;;;33.47;11.55;;;;;;;;;;5006578;28;20038;-61
2021/03/04 03:01:23;;;;;;;39.95;12.20;;;;;;;;;;4997297;28;20038;-60
2021/03/04 03:03:49;;;;;;;45.38;13.70;;;;;;;;;;5004073;28;20038;-61
2021/03/04 03:06:15;;;;;;;54.38;14.93;;;;;;;;;;5003442;28;20061;-61
2021/03/04 03:08:41;;;;;;;39.53;13.73;;;;;;;;;;5000939;28;20130;-61
2021/03/04 03:11:10;;;;;;;41.22;14.10;;;;;;;;;;5003357;28;20041;-60
2021/03/04 03:13:35;;;;;;;35.30;11.20;;;;;;;;;;5003736;28;20037;-60
2021/03/04 03:16:04;;;;;;;43.58;13.20;;;;;;;;;;5025839;28;20030;-60
2021/03/04 03:18:31;;;;;;;40.17;12.23;;;;;;;;;;5019863;28;20085;-60
2021/03/04 03:20:57;;;;;;;60.75;15.02;;;;;;;;;;5040944;28;20150;-60
2021/03/04 03:23:23;;;;;;;42.55;12.75;;;;;;;;;;5024267;28;20115;-59
2021/03/04 03:25:49;;;;;;;46.40;14.40;;;;;;;;;;5020893;28;20041;-61
2021/03/04 03:28:15;;;;;;;43.33;12.95;;;;;;;;;;5025168;28;20043;-61
2021/03/04 03:30:43;;;;;;;44.63;13.55;;;;;;;;;;5036681;28;20049;-62
2021/03/04 03:33:12;;;;;;;39.88;13.20;;;;;;;;;;5024392;28;20045;-60
2021/03/04 03:35:39;;;;;;;48.85;14.20;;;;;;;;;;5020315;28;20052;-61
2021/03/04 03:38:06;;;;;;;42.60;12.40;;;;;;;;;;5024669;28;20123;-60
2021/03/04 03:40:33;;;;;;;53.30;15.35;;;;;;;;;;5020963;28;20060;-62
2021/03/04 03:43:01;;;;;;;38.95;12.52;;;;;;;;;;5004354;28;20050;-61
2021/03/04 03:45:28;;;;;;;45.47;13.75;;;;;;;;;;5008102;28;20120;-62
2021/03/04 03:47:55;;;;;;;48.88;13.75;;;;;;;;;;5019020;28;20037;-60
2021/03/04 03:50:21;;;;;;;33.60;10.77;;;;;;;;;;5004395;28;20044;-61
2021/03/04 03:52:49;;;;;;;38.33;12.32;;;;;;;;;;5025625;28;20527;-60
2021/03/04 03:55:16;;;;;;;37.45;12.38;;;;;;;;;;5018989;28;20064;-61
2021/03/04 03:57:42;;;;;;;31.10;10.75;;;;;;;;;;5008415;28;20049;-61
2021/03/04 04:00:09;;;;;;;40.90;13.30;;;;;;;;;;5003120;28;20168;-60
2021/03/04 04:02:35;;;;;;;36.83;11.65;;;;;;;;;;5023439;28;20042;-61
2021/03/04 04:05:01;;;;;;;40.63;12.43;;;;;;;;;;5024016;28;20054;-60
2021/03/04 04:07:27;;;;;;;35.92;11.82;;;;;;;;;;5003105;28;20046;-59
2021/03/04 04:09:55;;;;;;;45.45;15.13;;;;;;;;;;5009001;28;20045;-59
2021/03/04 04:12:21;;;;;;;44.28;12.20;;;;;;;;;;5021136;28;20037;-60
2021/03/04 04:14:47;;;;;;;36.92;11.00;;;;;;;;;;5028139;28;20056;-62
2021/03/04 04:17:13;;;;;;;39.05;12.27;;;;;;;;;;4999127;28;20042;-61
2021/03/04 04:19:40;;;;;;;34.67;12.90;;;;;;;;;;4986599;28;20045;-61
2021/03/04 04:22:06;;;;;;;37.92;12.00;;;;;;;;;;4994339;28;20045;-60
2021/03/04 04:24:32;;;;;;;40.13;12.15;;;;;;;;;;5007771;28;20149;-60
2021/03/04 04:26:59;;;;;;;45.13;13.82;;;;;;;;;;5027647;28;20033;-61
2021/03/04 04:29:25;;;;;;;41.03;12.38;;;;;;;;;;5026697;28;20118;-60
2021/03/04 04:31:51;;;;;;;41.10;13.18;;;;;;;;;;5021317;28;20041;-60
2021/03/04 04:34:17;;;;;;;48.63;14.88;;;;;;;;;;5027330;28;20037;-62
2021/03/04 04:36:43;;;;;;;44.55;14.05;;;;;;;;;;5023152;28;20155;-60
2021/03/04 04:39:09;;;;;;;39.38;13.43;;;;;;;;;;5024754;28;20043;-60
2021/03/04 04:41:35;;;;;;;49.65;14.20;;;;;;;;;;5026238;28;20053;-61
2021/03/04 04:44:02;;;;;;;54.97;15.80;;;;;;;;;;5008065;28;20046;-62
2021/03/04 04:46:28;;;;;;;38.05;12.32;;;;;;;;;;5007315;28;20056;-61
2021/03/04 04:48:54;;;;;;;36.50;12.60;;;;;;;;;;5003639;28;20038;-59
2021/03/04 04:51:19;;;;;;;35.88;12.43;;;;;;;;;;5005397;28;20052;-62
2021/03/04 04:53:45;;;;;;;45.40;12.82;;;;;;;;;;5017353;28;20045;-60
2021/03/04 04:56:11;;;;;;;42.65;12.82;;;;;;;;;;5026478;28;20037;-62
2021/03/04 04:58:37;;;;;;;44.53;13.55;;;;;;;;;;5012186;28;20115;-62
2021/03/04 05:01:04;;;;;;;49.65;15.48;;;;;;;;;;5022242;28;20037;-61
2021/03/04 05:03:30;;;;;;;43.00;14.65;;;;;;;;;;5010221;28;20048;-60
2021/03/04 05:05:56;;;;;;;43.80;13.50;;;;;;;;;;5027698;28;20041;-60
2021/03/04 05:08:22;;;;;;;40.10;13.23;;;;;;;;;;5035472;28;20052;-59
2021/03/04 05:10:49;;;;;;;36.10;10.93;;;;;;;;;;5023037;28;20038;-62
2021/03/04 05:13:16;;;;;;;45.40;12.68;;;;;;;;;;5004848;28;20045;-60
2021/03/04 05:15:42;;;;;;;41.10;13.73;;;;;;;;;;5025693;28;20070;-60
2021/03/04 05:18:09;;;;;;;45.78;14.70;;;;;;;;;;5022756;28;20061;-60
2021/03/04 05:20:35;;;;;;;45.28;15.35;;;;;;;;;;5003134;28;20054;-61
2021/03/04 05:23:01;;;;;;;46.03;14.10;;;;;;;;;;5001671;28;20046;-59
2021/03/04 05:25:27;;;;;;;35.05;12.20;;;;;;;;;;5019644;28;20135;-61
2021/03/04 05:27:53;;;;;;;44.10;13.52;;;;;;;;;;5042891;28;20049;-60
2021/03/04 05:30:21;;;;;;;45.58;13.90;;;;;;;;;;5021393;28;20044;-60
2021/03/04 05:32:47;;;;;;;39.63;13.05;;;;;;;;;;5025324;28;20052;-59
2021/03/04 05:35:15;;;;;;;43.40;13.80;;;;;;;;;;5021733;28;20041;-59
2021/03/04 05:37:41;;;;;;;40.30;12.53;;;;;;;;;;5028013;28;20069;-60
2021/03/04 05:40:08;;;;;;;44.63;14.40;;;;;;;;;;5022751;28;20114;-60
2021/03/04 05:42:34;;;;;;;49.30;14.73;;;;;;;;;;5023800;28;20041;-61
2021/03/04 05:45:00;;;;;;;45.63;13.52;;;;;;;;;;5003330;28;20056;-61
2021/03/04 05:47:26;;;;;;;32.55;11.55;;;;;;;;;;5005443;28;20042;-61
2021/03/04 05:49:56;;;;;;;48.33;13.65;;;;;;;;;;4995577;28;20053;-62
2021/03/04 05:52:23;;;;;;;46.47;13.63;;;;;;;;;;5022229;28;20049;-62
2021/03/04 05:54:51;;;;;;;42.33;12.30;;;;;;;;;;5006006;28;20041;-61
2021/03/04 05:57:18;;;;;;;44.88;11.85;;;;;;;;;;5025457;28;20218;-61
2021/03/04 05:59:46;;;;;;;41.85;11.45;;;;;;;;;;5038318;28;20042;-61
2021/03/04 06:02:12;;;;;;;38.53;12.23;;;;;;;;;;5024924;28;20053;-62
2021/03/04 06:04:38;;;;;;;47.60;14.30;;;;;;;;;;5042947;28;20045;-60
2021/03/04 06:07:04;;;;;;;47.40;13.05;;;;;;;;;;5021695;28;20041;-59
2021/03/04 06:09:31;;;;;;;49.28;13.90;;;;;;;;;;5025662;28;20408;-61
2021/03/04 06:12:01;;;;;;;41.25;12.73;;;;;;;;;;5021920;28;20053;-60
2021/03/04 06:14:27;;;;;;;48.83;14.55;;;;;;;;;;5021224;28;20046;-59
2021/03/04 06:16:55;;;;;;;50.88;14.10;;;;;;;;;;4992652;28;20062;-62
2021/03/04 06:19:21;;;;;;;38.03;11.45;;;;;;;;;;5011115;28;20539;-62
2021/03/04 06:21:57;;;;;;;50.28;14.20;;;;;;;;;;4976422;28;20046;-61
2021/03/04 06:24:23;;;;;;;48.92;14.25;;;;;;;;;;4993132;28;20046;-59
2021/03/04 06:26:54;;;;;;;49.75;14.30;;;;;;;;;;4990716;28;20081;-60
2021/03/04 06:29:22;;;;;;;50.30;14.38;;;;;;;;;;4994297;28;20188;-62
2021/03/04 06:31:58;;;;;;;50.45;13.38;;;;;;;;;;5008066;28;20042;-61
2021/03/04 06:34:24;;;;;;;41.40;12.13;;;;;;;;;;5012381;28;20508;-60
2021/03/04 06:36:54;;;;;;;54.60;15.50;;;;;;;;;;4991527;28;20097;-61
2021/03/04 06:39:20;;;;;;;42.72;12.52;;;;;;;;;;4997054;28;20046;-61
2021/03/04 06:41:46;;;;;;;53.00;15.73;;;;;;;;;;4992274;28;20041;-61
2021/03/04 06:44:13;;;;;;;46.97;14.60;;;;;;;;;;5011719;28;20127;-59
2021/03/04 06:46:45;;;;;;;37.42;10.57;;;;;;;;;;4991996;28;20053;-61
2021/03/04 06:49:11;;;;;;;43.60;13.55;;;;;;;;;;5004984;28;20064;-62
2021/03/04 06:51:42;;;;;;;43.67;13.07;;;;;;;;;;4997146;28;20045;-62
2021/03/04 06:54:22;;;;;;;50.00;12.68;;;;;;;;;;5012405;28;20048;-59
2021/03/04 06:56:48;;;;;;;50.78;12.43;;;;;;;;;;5013649;28;20042;-61
2021/03/04 06:59:15;;;;;;;49.83;14.45;;;;;;;;;;4992730;28;20049;-60
2021/03/04 07:01:44;;;;;;;46.97;12.45;;;;;;;;;;4993441;28;20081;-58
2021/03/04 07:04:14;;;;;;;43.88;12.60;;;;;;;;;;5015517;28;20042;-62
2021/03/04 07:06:40;;;;;;;43.60;11.68;;;;;;;;;;4996797;28;20029;-61
2021/03/04 07:09:08;;;;;;;41.78;11.20;;;;;;;;;;4992030;28;20073;-61
2021/03/04 07:11:35;;;;;;;45.85;14.13;;;;;;;;;;4990215;28;20030;-60
2021/03/04 07:14:02;;;;;;;41.28;12.00;;;;;;;;;;4996375;28;20053;-62
2021/03/04 07:16:32;;;;;;;48.58;12.38;;;;;;;;;;5022316;28;20045;-61
2021/03/04 07:18:59;;;;;;;45.22;12.40;;;;;;;;;;5027869;28;20049;-62
2021/03/04 07:21:25;;;;;;;45.25;13.70;;;;;;;;;;5023282;28;20053;-61
2021/03/04 07:23:51;;;;;;;49.55;12.55;;;;;;;;;;5037084;28;20045;-62
2021/03/04 07:26:18;;;;;;;54.55;14.80;;;;;;;;;;5041220;28;20049;-60
2021/03/04 07:28:45;;;;;;;43.35;12.05;;;;;;;;;;5036571;28;20041;-61
2021/03/04 07:31:12;;;;;;;51.40;13.25;;;;;;;;;;5023291;28;20049;-61
2021/03/04 07:33:43;;;;;;;47.83;13.13;;;;;;;;;;5017649;28;20062;-60
2021/03/04 07:36:10;;;;;;;65.07;15.55;;;;;;;;;;5004145;28;20074;-62
2021/03/04 07:38:37;;;;;;;50.70;12.48;;;;;;;;;;5000794;28;20046;-61
2021/03/04 07:41:04;;;;;;;36.70;12.43;;;;;;;;;;5014983;28;20192;-62
2021/03/04 07:43:30;;;;;;;42.05;12.93;;;;;;;;;;4993631;28;20026;-60
2021/03/04 07:45:56;;;;;;;54.45;14.20;;;;;;;;;;5016941;28;20602;-62
2021/03/04 07:48:22;;;;;;;56.80;13.93;;;;;;;;;;5020817;28;20057;-61
2021/03/04 07:51:03;;;;;;;46.78;13.35;;;;;;;;;;5014004;28;20065;-61
2021/03/04 07:53:29;;;;;;;52.80;13.77;;;;;;;;;;5020695;28;20102;-61
2021/03/04 07:55:55;;;;;;;48.97;13.43;;;;;;;;;;4999269;28;20069;-61
2021/03/04 07:58:21;;;;;;;50.17;14.05;;;;;;;;;;5005183;28;20046;-61
2021/03/04 08:00:47;;;;;;;50.88;12.73;;;;;;;;;;5019393;28;20056;-60
2021/03/04 08:03:13;;;;;;;48.50;14.35;;;;;;;;;;5004430;28;20049;-61
2021/03/04 08:05:42;;;;;;;48.03;13.15;;;;;;;;;;4991509;28;20054;-60
2021/03/04 08:08:13;;;;;;;56.03;14.82;;;;;;;;;;4983296;28;20046;-62
2021/03/04 08:10:44;;;;;;;45.22;12.23;;;;;;;;;;5001897;28;20104;-63
2021/03/04 08:13:10;;;;;;;48.25;12.95;;;;;;;;;;5020421;28;20464;-63
2021/03/04 08:15:40;;;;;;;44.53;11.32;;;;;;;;;;5017361;28;20045;-62
2021/03/04 08:18:14;;;;;;;47.22;12.77;;;;;;;;;;5002566;28;20038;-63
2021/03/04 08:20:42;;;;;;;46.75;14.10;;;;;;;;;;5001566;28;20095;-62
2021/03/04 08:23:08;;;;;;;46.28;14.07;;;;;;;;;;5003875;28;20049;-62
2021/03/04 08:25:36;;;;;;;52.22;13.57;;;;;;;;;;5000510;28;20048;-62
2021/03/04 08:28:04;;;;;;;49.30;13.52;;;;;;;;;;5024361;28;20037;-62
2021/03/04 08:30:33;;;;;;;55.97;14.35;;;;;;;;;;5024868;28;20114;-62
2021/03/04 08:33:01;;;;;;;46.97;12.77;;;;;;;;;;5041476;28;20041;-62
2021/03/04 08:35:27;;;;;;;51.10;14.38;;;;;;;;;;5026944;28;20064;-63
2021/03/04 08:37:57;;;;;;;49.25;13.80;;;;;;;;;;5023685;28;20048;-63
2021/03/04 08:40:24;;;;;;;47.03;13.00;;;;;;;;;;5043139;28;20064;-63
2021/03/04 08:42:51;;;;;;;50.13;14.48;;;;;;;;;;5003346;28;20053;-63
2021/03/04 08:45:27;;;;;;;36.92;10.20;;;;;;;;;;4987597;28;20042;-63
2021/03/04 08:47:53;;;;;;;37.28;10.43;;;;;;;;;;5010679;28;20085;-63
2021/03/04 08:50:19;;;;;;;42.35;11.68;;;;;;;;;;5044110;28;20033;-62
2021/03/04 08:52:45;;;;;;;57.95;14.65;;;;;;;;;;5027725;28;20045;-63
2021/03/04 08:55:11;;;;;;;44.35;11.90;;;;;;;;;;5022962;28;20049;-63
2021/03/04 08:57:37;;;;;;;45.85;11.45;;;;;;;;;;5011961;28;20053;-62
2021/03/04 09:00:07;;;;;;;42.42;13.13;;;;;;;;;;5025243;28;20025;-64
2021/03/04 09:02:33;;;;;;;34.25;10.60;;;;;;;;;;5016603;28;20037;-63
2021/03/04 09:05:00;;;;;;;51.30;12.75;;;;;;;;;;5006433;28;20042;-61
2021/03/04 09:07:26;;;;;;;38.63;11.02;;;;;;;;;;5022342;28;20021;-63
2021/03/04 09:10:00;;;;;;;41.00;11.77;;;;;;;;;;5025528;28;20044;-63
2021/03/04 09:12:26;;;;;;;34.28;9.85;;;;;;;;;;5020130;28;20044;-61
2021/03/04 09:14:54;;;;;;;43.50;11.02;;;;;;;;;;5006816;28;20100;-62
2021/03/04 09:17:21;;;;;;;44.63;11.52;;;;;;;;;;5022450;28;20044;-60
2021/03/04 09:19:52;;;;;;;35.13;9.52;;;;;;;;;;5022145;28;20042;-62
2021/03/04 09:22:18;;;;;;;32.35;9.95;;;;;;;;;;5005679;28;20054;-61
2021/03/04 09:24:45;;;;;;;41.72;11.07;;;;;;;;;;5021005;28;20057;-62
2021/03/04 09:27:13;;;;;;;39.75;10.80;;;;;;;;;;5007345;28;20045;-62
2021/03/04 09:29:41;;;;;;;47.70;12.50;;;;;;;;;;5033161;28;20070;-61
2021/03/04 09:32:07;;;;;;;45.30;11.80;;;;;;;;;;5013640;28;20053;-62
2021/03/04 09:34:35;;;;;;;43.42;11.25;;;;;;;;;;5002258;28;20049;-61
2021/03/04 09:37:08;;;;;;;33.95;8.73;;;;;;;;;;5006551;28;20034;-62
2021/03/04 09:39:40;;;;;;;37.60;9.13;;;;;;;;;;5002871;28;20111;-62
2021/03/04 09:42:06;;;;;;;31.85;8.60;;;;;;;;;;5012499;28;20068;-62
2021/03/04 09:44:32;;;;;;;29.33;8.10;;;;;;;;;;5020755;28;20096;-62
2021/03/04 09:46:58;;;;;;;34.35;9.93;;;;;;;;;;5005432;28;20044;-61
2021/03/04 09:49:32;;;;;;;33.63;9.85;;;;;;;;;;5002410;28;20053;-62
2021/03/04 09:51:59;;;;;;;32.65;9.43;;;;;;;;;;5023722;28;20042;-61
2021/03/04 09:54:26;;;;;;;34.10;10.18;;;;;;;;;;5008663;28;20053;-62
2021/03/04 09:57:02;;;;;;;41.67;11.70;;;;;;;;;;5028004;28;20056;-61
2021/03/04 09:59:28;;;;;;;31.80;8.88;;;;;;;;;;5037734;28;20033;-61
2021/03/04 10:01:55;;;;;;;37.88;10.52;;;;;;;;;;5040198;28;20037;-63
2021/03/04 10:04:25;;;;;;;29.70;9.52;;;;;;;;;;5016428;28;20053;-63
2021/03/04 10:06:51;;;;;;;33.55;8.57;;;;;;;;;;5021093;28;20056;-63
2021/03/04 10:09:24;;;;;;;28.35;7.78;;;;;;;;;;5020555;28;20033;-61
2021/03/04 10:11:50;;;;;;;30.35;8.02;;;;;;;;;;4999629;28;20034;-62
2021/03/04 10:14:16;;;;;;;29.95;8.50;;;;;;;;;;5002502;28;20034;-63
2021/03/04 10:16:42;;;;;;;26.33;8.00;;;;;;;;;;5014079;28;20034;-62
2021/03/04 10:19:09;;;;;;;28.30;7.28;;;;;;;;;;5022649;28;20075;-62
2021/03/04 10:21:36;;;;;;;29.65;7.50;;;;;;;;;;5016537;28;20034;-63
2021/03/04 10:24:02;;;;;;;30.40;8.07;;;;;;;;;;5022453;28;20065;-63
2021/03/04 10:26:29;;;;;;;25.77;8.40;;;;;;;;;;5019519;28;20135;-60
2021/03/04 10:28:55;;;;;;;23.73;7.43;;;;;;;;;;5020376;28;20030;-62
2021/03/04 10:31:21;;;;;;;32.13;9.43;;;;;;;;;;5008665;28;20083;-60
2021/03/04 10:33:48;;;;;;;23.58;7.75;;;;;;;;;;5001968;28;20034;-62
2021/03/04 10:36:14;;;;;;;20.13;6.28;;;;;;;;;;4999274;28;20374;-62
2021/03/04 10:38:39;;;;;;;28.75;7.53;;;;;;;;;;5002594;28;20059;-61
2021/03/04 10:41:06;;;;;;;31.35;8.65;;;;;;;;;;4984278;28;20029;-63
2021/03/04 10:43:32;;;;;;;23.92;7.53;;;;;;;;;;5001877;28;20057;-61
2021/03/04 10:45:58;;;;;;;22.40;6.43;;;;;;;;;;4982231;28;20067;-62
2021/03/04 10:48:24;;;;;;;25.50;8.10;;;;;;;;;;5004407;28;20042;-62
2021/03/04 10:50:51;;;;;;;22.85;6.07;;;;;;;;;;5003908;28;20414;-61
2021/03/04 10:53:19;;;;;;;23.98;7.30;;;;;;;;;;4997916;28;20049;-62
2021/03/04 10:55:45;;;;;;;25.92;6.95;;;;;;;;;;5002294;28;20074;-62
2021/03/04 10:58:11;;;;;;;30.17;7.60;;;;;;;;;;5016534;28;20041;-62
2021/03/04 11:00:41;;;;;;;26.05;8.10;;;;;;;;;;5020015;28;20052;-61
2021/03/04 11:03:06;;;;;;;24.02;6.90;;;;;;;;;;5005845;28;20054;-63
2021/03/04 11:05:32;;;;;;;22.33;6.85;;;;;;;;;;5000620;28;20350;-61
2021/03/04 11:07:58;;;;;;;21.30;7.35;;;;;;;;;;5000528;28;20054;-62
2021/03/04 11:10:24;;;;;;;23.13;7.13;;;;;;;;;;5001241;28;20041;-61
2021/03/04 11:12:51;;;;;;;26.13;7.53;;;;;;;;;;4997623;28;20661;-61
2021/03/04 11:15:16;;;;;;;18.88;6.22;;;;;;;;;;5001643;28;20038;-63
2021/03/04 11:17:43;;;;;;;18.73;6.18;;;;;;;;;;4997330;28;20113;-61
2021/03/04 11:20:10;;;;;;;24.17;7.47;;;;;;;;;;5002339;28;20038;-62
2021/03/04 11:22:36;;;;;;;22.15;6.28;;;;;;;;;;5000696;28;20078;-62
2021/03/04 11:25:02;;;;;;;21.58;6.55;;;;;;;;;;5002909;28;20423;-62
2021/03/04 11:27:28;;;;;;;19.92;4.97;;;;;;;;;;5000839;28;20057;-61
2021/03/04 11:29:55;;;;;;;17.48;5.03;;;;;;;;;;5000195;28;20042;-63
2021/03/04 11:32:21;;;;;;;13.90;4.45;;;;;;;;;;5000822;28;20037;-62
2021/03/04 11:34:48;;;;;;;14.98;3.83;;;;;;;;;;5005439;28;20042;-62
2021/03/04 11:37:14;;;;;;;13.75;4.90;;;;;;;;;;5001924;28;20046;-63
2021/03/04 11:39:40;;;;;;;13.40;4.20;;;;;;;;;;4997761;28;20391;-63
2021/03/04 11:42:06;;;;;;;11.20;3.65;;;;;;;;;;5007882;28;20268;-62
2021/03/04 11:44:33;;;;;;;11.25;3.67;;;;;;;;;;4999076;28;20381;-63
2021/03/04 11:46:58;;;;;;;8.27;3.22;;;;;;;;;;5001816;28;20476;-62
2021/03/04 11:49:24;;;;;;;14.38;4.00;;;;;;;;;;4998677;28;20049;-61
2021/03/04 11:51:51;;;;;;;13.52;3.67;;;;;;;;;;5000030;28;20039;-63
2021/03/04 11:54:17;;;;;;;12.38;4.32;;;;;;;;;;5003378;28;20072;-63
2021/03/04 11:56:43;;;;;;;13.05;3.53;;;;;;;;;;5020486;28;20069;-63
2021/03/04 11:59:12;;;;;;;11.10;3.75;;;;;;;;;;5016006;28;20081;-63
2021/03/04 12:01:38;;;;;;;10.27;4.05;;;;;;;;;;5020698;28;20030;-62
2021/03/04 12:04:04;;;;;;;10.88;3.50;;;;;;;;;;5014932;28;20081;-63
2021/03/04 12:06:30;;;;;;;13.15;3.70;;;;;;;;;;5001974;28;20063;-61
2021/03/04 12:08:57;;;;;;;14.23;3.42;;;;;;;;;;5003916;28;20046;-62
2021/03/04 12:11:26;;;;;;;7.28;2.90;;;;;;;;;;5000086;28;20077;-62
2021/03/04 12:13:57;;;;;;;13.52;3.13;;;;;;;;;;5002461;28;20187;-63
2021/03/04 12:16:23;;;;;;;12.77;3.17;;;;;;;;;;5018289;28;20073;-63
2021/03/04 12:18:49;;;;;;;10.10;2.95;;;;;;;;;;5024232;28;20046;-62
2021/03/04 12:21:15;;;;;;;8.73;3.28;;;;;;;;;;5020453;28;20053;-61
2021/03/04 12:23:41;;;;;;;11.68;3.17;;;;;;;;;;5024260;28;20061;-62
2021/03/04 12:26:08;;;;;;;9.95;3.08;;;;;;;;;;5018546;28;20026;-62
2021/03/04 12:28:34;;;;;;;8.88;2.55;;;;;;;;;;5023737;28;20484;-61
2021/03/04 12:31:00;;;;;;;7.63;2.75;;;;;;;;;;5010649;28;20046;-62
2021/03/04 12:33:26;;;;;;;6.80;2.20;;;;;;;;;;5003918;28;20841;-62
2021/03/04 12:35:52;;;;;;;8.60;3.00;;;;;;;;;;5007802;28;20041;-62
2021/03/04 12:38:18;;;;;;;8.00;2.92;;;;;;;;;;5022333;28;20049;-62
2021/03/04 12:40:45;;;;;;;10.50;2.38;;;;;;;;;;5018470;28;20045;-62
2021/03/04 12:43:12;;;;;;;6.72;2.30;;;;;;;;;;4999496;28;20124;-63
2021/03/04 12:45:38;;;;;;;6.25;2.40;;;;;;;;;;4981410;28;20050;-62
2021/03/04 12:48:05;;;;;;;7.88;2.60;;;;;;;;;;5024358;28;20033;-63
2021/03/04 12:50:38;;;;;;;7.65;2.30;;;;;;;;;;5024382;28;20048;-63
2021/03/04 12:53:05;;;;;;;6.82;2.40;;;;;;;;;;5019546;28;20041;-63
2021/03/04 12:55:31;;;;;;;6.55;2.20;;;;;;;;;;5022904;28;20050;-63
2021/03/04 12:57:57;;;;;;;6.80;2.17;;;;;;;;;;5002604;28;20056;-62
2021/03/04 13:00:24;;;;;;;4.82;1.90;;;;;;;;;;5005507;28;20038;-63
2021/03/04 13:02:50;;;;;;;8.32;2.42;;;;;;;;;;4999107;28;20109;-62
2021/03/04 13:05:17;;;;;;;7.45;2.63;;;;;;;;;;5018990;28;20060;-63
2021/03/04 13:07:43;;;;;;;8.27;1.98;;;;;;;;;;5013909;28;20118;-63
2021/03/04 13:10:12;;;;;;;9.27;2.47;;;;;;;;;;5042050;28;20057;-62
2021/03/04 13:12:38;;;;;;;7.97;2.40;;;;;;;;;;5038063;28;20053;-62
2021/03/04 13:15:04;;;;;;;9.82;2.28;;;;;;;;;;5040905;28;20048;-62
2021/03/04 13:17:31;;;;;;;6.20;1.88;;;;;;;;;;5031253;28;20052;-63
2021/03/04 13:19:57;;;;;;;4.57;1.98;;;;;;;;;;5005447;28;20049;-61
2021/03/04 13:22:23;;;;;;;9.20;2.00;;;;;;;;;;5006431;28;20030;-62
2021/03/04 13:24:49;;;;;;;9.32;2.50;;;;;;;;;;5026300;28;20037;-62
2021/03/04 13:27:16;;;;;;;5.55;2.08;;;;;;;;;;5035537;28;20052;-61
2021/03/04 13:29:42;;;;;;;7.38;2.65;;;;;;;;;;5032257;28;20052;-61
2021/03/04 13:32:08;;;;;;;6.60;2.70;;;;;;;;;;5024513;28;20136;-62
2021/03/04 13:34:38;;;;;;;7.60;2.90;;;;;;;;;;5003363;28;20056;-63
2021/03/04 13:37:04;;;;;;;8.18;2.42;;;;;;;;;;5021797;28;20037;-62
2021/03/04 13:39:32;;;;;;;10.73;3.05;;;;;;;;;;5016985;28;20037;-63
2021/03/04 13:41:58;;;;;;;10.13;2.67;;;;;;;;;;5011152;28;20131;-61
2021/03/04 13:44:24;;;;;;;7.40;2.90;;;;;;;;;;5005833;28;20083;-61
2021/03/04 13:46:50;;;;;;;10.45;3.30;;;;;;;;;;5005934;28;20156;-60
2021/03/04 13:49:19;;;;;;;6.78;2.75;;;;;;;;;;5012341;28;20097;-60
2021/03/04 13:51:46;;;;;;;9.73;3.40;;;;;;;;;;5040690;28;20107;-62
2021/03/04 13:54:12;;;;;;;7.20;2.67;;;;;;;;;;5022571;28;20139;-62
2021/03/04 13:56:38;;;;;;;8.68;2.80;;;;;;;;;;5028566;28;20065;-62
2021/03/04 13:59:04;;;;;;;10.18;3.55;;;;;;;;;;5002684;28;20038;-62
2021/03/04 14:01:30;;;;;;;9.55;2.92;;;;;;;;;;5022264;28;20050;-62
2021/03/04 14:04:01;;;;;;;7.90;2.75;;;;;;;;;;5021534;28;20041;-61
2021/03/04 14:06:29;;;;;;;11.57;3.72;;;;;;;;;;5023950;28;20037;-62
2021/03/04 14:09:00;;;;;;;11.10;3.80;;;;;;;;;;5039361;28;20041;-61
2021/03/04 14:11:27;;;;;;;9.27;3.75;;;;;;;;;;5006348;28;20034;-62
2021/03/04 14:13:53;;;;;;;8.98;3.63;;;;;;;;;;5007293;28;20048;-61
2021/03/04 14:16:19;;;;;;;8.27;3.15;;;;;;;;;;5038782;28;20041;-61
2021/03/04 14:18:45;;;;;;;8.38;3.20;;;;;;;;;;5043112;28;20111;-59
2021/03/04 14:21:11;;;;;;;8.32;3.47;;;;;;;;;;5018220;28;20479;-60
2021/03/04 14:23:37;;;;;;;6.50;2.20;;;;;;;;;;5025257;28;20037;-60